首页
METAR-TAF:

METAR-TAF

机场 :

哥伦比亚, 南卡罗来纳州, 美国

纬度: 33-58-15N, 经度: 080-59-40W, 海拔: 64米

当前天气观测

该预报发布于45分钟前的01:53 UTC
风速8节,风向北转西北,在西转西北之间变化
温度 19°C
湿度 43%
气压 1016 hPa
能見度: 16.1公里
天空无云

METAR: KCUB 170153Z AUTO 33008KT 290V360 10SM CLR 19/06 A2999 RMK AO2 SLP153 T01940061

时间: 22:38 (02:38 UTC)

预报

该预报发布于3小时和10分钟前的23:28 UTC
预报有效从17日的 00点(UTC)到 17日的 24点(UTC)
风速10节,风向西北,有时为18节阵风
能見度: 10公里
散云层高于5000英尺
从 17日的 0300点(UTC)
风速5节,风向北转西北
能見度: 10公里
天空无云
从 17日的 1500点(UTC)
风速9节,风向西北
能見度: 10公里
天空无云

TAF: KCUB 162328Z 1700/1724 32010G18KT P6SM SCT050 FM170300 33005KT P6SM SKC FM171500 32009KT P6SM SKC

超过4000个机场的气象观测和天气预报(METAR&TAF报告)。

可查询的气象台以黄色和红色小点在地图上表示。

将鼠标移到小点上方,可查看气象台名称。

然后点击查看天气观测和预报。

如需切换地图:点击带黑十字的绿色按钮放大地图;点击带横线的绿色按钮缩小地图;或者点击绿色箭头查看邻近地区的地图。


METAR-TAF: